createdAt,value
2019-05-01T00:01:48.375Z,47.52
2019-05-01T00:04:28.491Z,47.29
2019-05-01T00:07:00.674Z,47.34
2019-05-01T00:09:31.659Z,47.21
2019-05-01T00:12:04.153Z,46.93
2019-05-01T00:14:34.563Z,46.43
2019-05-01T00:17:08.413Z,46.14
2019-05-01T00:19:38.816Z,45.91
2019-05-01T00:22:10.372Z,45.71
2019-05-01T00:24:39.864Z,45.68
2019-05-01T00:27:09.470Z,44.85
2019-05-01T00:29:40.038Z,45.80
2019-05-01T00:32:12.413Z,47.58
2019-05-01T00:34:41.903Z,48.07
2019-05-01T00:37:12.285Z,47.85
2019-05-01T00:39:44.623Z,48.07
2019-05-01T00:42:14.051Z,47.76
2019-05-01T00:44:44.439Z,47.72
2019-05-01T00:47:15.860Z,47.14
2019-05-01T00:49:46.191Z,47.20
2019-05-01T00:52:15.499Z,46.53
2019-05-01T00:54:47.522Z,46.59
2019-05-01T00:57:21.170Z,46.60
2019-05-01T01:00:11.417Z,47.02
2019-05-01T01:02:44.650Z,46.93
2019-05-01T01:05:15.473Z,48.58
2019-05-01T01:07:45.879Z,48.67
2019-05-01T01:10:16.485Z,48.74
2019-05-01T01:12:46.891Z,48.94
2019-05-01T01:15:20.328Z,49.13
2019-05-01T01:17:50.733Z,49.38
2019-05-01T01:20:21.181Z,49.75
2019-05-01T01:22:51.753Z,49.82
2019-05-01T01:25:22.369Z,49.69
2019-05-01T01:27:52.987Z,49.80
2019-05-01T01:30:23.602Z,50.06
2019-05-01T01:32:52.853Z,49.92
2019-05-01T01:35:25.671Z,50.25
2019-05-01T01:37:55.970Z,50.78
2019-05-01T01:40:26.698Z,50.95
2019-05-01T01:42:58.966Z,50.75
2019-05-01T01:45:38.770Z,50.92
2019-05-01T01:48:13.575Z,50.57
2019-05-01T01:50:46.511Z,50.54
2019-05-01T01:53:18.874Z,50.47
2019-05-01T01:55:48.965Z,50.42
2019-05-01T01:58:20.618Z,50.76
2019-05-01T02:01:09.568Z,50.51
2019-05-01T02:03:40.871Z,50.14
2019-05-01T02:06:11.377Z,49.75
2019-05-01T02:08:40.413Z,49.76
2019-05-01T02:11:11.029Z,49.82
2019-05-01T02:13:41.868Z,49.91
2019-05-01T02:16:12.256Z,50.14
2019-05-01T02:18:41.833Z,50.39
2019-05-01T02:21:12.502Z,50.14
2019-05-01T02:23:44.467Z,50.24
2019-05-01T02:26:15.752Z,49.95
2019-05-01T02:28:47.267Z,50.14
2019-05-01T02:31:28.007Z,50.61
2019-05-01T02:33:54.946Z,50.50
2019-05-01T02:36:26.594Z,50.58
2019-05-01T02:38:58.225Z,50.63
2019-05-01T02:41:33.384Z,50.83
2019-05-01T02:44:11.576Z,50.71
2019-05-01T02:46:43.664Z,50.74
2019-05-01T02:49:21.268Z,51.15
2019-05-01T02:51:52.154Z,51.27
2019-05-01T02:54:23.434Z,50.99
2019-05-01T02:56:56.703Z,50.80
2019-05-01T02:59:30.198Z,50.72
2019-05-01T03:02:02.966Z,50.56
2019-05-01T03:04:36.342Z,50.30
2019-05-01T03:07:09.791Z,50.46
2019-05-01T03:09:43.795Z,50.75
2019-05-01T03:12:14.676Z,50.56
2019-05-01T03:14:48.091Z,50.67
2019-05-01T03:17:38.104Z,50.57
2019-05-01T03:20:29.267Z,51.31
2019-05-01T03:23:12.866Z,51.38
2019-05-01T03:25:42.877Z,50.81
2019-05-01T03:28:14.639Z,50.80
2019-05-01T03:30:44.369Z,50.69
2019-05-01T03:33:15.471Z,50.68
2019-05-01T03:35:46.178Z,50.80
2019-05-01T03:38:15.784Z,50.79
2019-05-01T03:40:47.507Z,50.53
2019-05-01T03:43:17.120Z,50.73
2019-05-01T03:45:47.920Z,50.70
2019-05-01T03:48:18.515Z,50.98
2019-05-01T03:50:49.860Z,51.00
2019-05-01T03:53:20.621Z,51.32
2019-05-01T03:55:50.673Z,51.07
2019-05-01T03:58:23.894Z,50.86
2019-05-01T04:01:12.310Z,50.37
2019-05-01T04:03:47.207Z,49.95
2019-05-01T04:06:16.742Z,49.83
2019-05-01T04:08:46.094Z,49.40
2019-05-01T04:11:17.075Z,49.54
2019-05-01T04:13:46.724Z,49.40
2019-05-01T04:16:17.148Z,49.00
2019-05-01T04:18:46.683Z,48.78
2019-05-01T04:21:19.898Z,48.36
2019-05-01T04:23:51.349Z,47.67
2019-05-01T04:26:21.862Z,48.15
2019-05-01T04:28:55.317Z,47.67
2019-05-01T04:31:26.388Z,47.29
2019-05-01T04:33:58.617Z,46.95
2019-05-01T04:36:31.010Z,46.10
2019-05-01T04:39:01.974Z,45.63
2019-05-01T04:41:34.422Z,43.07
2019-05-01T04:44:04.346Z,43.08
2019-05-01T04:46:35.278Z,40.08
2019-05-01T04:49:04.993Z,35.87
2019-05-01T04:51:35.626Z,32.72
2019-05-01T04:54:05.136Z,30.22
2019-05-01T04:56:34.577Z,28.63
2019-05-01T04:59:05.482Z,28.31
2019-05-01T05:01:52.802Z,27.45
2019-05-01T05:04:24.375Z,27.62
2019-05-01T05:06:55.342Z,26.78
2019-05-01T05:09:39.243Z,25.65
2019-05-01T05:12:12.240Z,24.49
2019-05-01T05:14:53.250Z,23.65
2019-05-01T05:17:26.590Z,23.83
2019-05-01T05:19:57.926Z,22.60
2019-05-01T05:22:28.646Z,21.16
2019-05-01T05:25:00.518Z,20.89
2019-05-01T05:27:31.635Z,20.87
2019-05-01T05:30:01.839Z,20.42
2019-05-01T05:32:34.453Z,19.10
2019-05-01T05:35:06.381Z,17.89
2019-05-01T05:37:59.406Z,17.88
2019-05-01T05:40:32.975Z,17.35
2019-05-01T05:43:03.543Z,17.38
2019-05-01T05:45:36.254Z,18.39
2019-05-01T05:48:05.755Z,18.67
2019-05-01T05:50:40.082Z,16.87
2019-05-01T05:53:15.292Z,16.22
2019-05-01T05:55:49.166Z,15.22
2019-05-01T05:58:24.244Z,16.21
2019-05-01T06:00:59.316Z,18.31
2019-05-01T06:03:48.608Z,19.98
2019-05-01T06:06:26.167Z,22.51
2019-05-01T06:08:59.887Z,20.52
2019-05-01T06:11:35.401Z,15.89
2019-05-01T06:14:07.149Z,19.86
2019-05-01T06:16:40.649Z,23.29
2019-05-01T06:19:16.353Z,22.81
2019-05-01T06:22:10.118Z,19.57
2019-05-01T06:24:42.679Z,19.57
2019-05-01T06:27:13.879Z,14.33
2019-05-01T06:29:45.471Z,12.04
2019-05-01T06:32:15.791Z,12.41
2019-05-01T06:34:46.485Z,10.92
2019-05-01T06:37:20.897Z,10.32
2019-05-01T06:39:51.563Z,10.70
2019-05-01T06:42:22.028Z,10.58
2019-05-01T06:44:54.999Z,10.96
2019-05-01T06:47:27.179Z,10.33
2019-05-01T06:50:07.242Z,10.66
2019-05-01T06:52:41.530Z,10.30
2019-05-01T06:55:10.990Z,13.31
2019-05-01T06:57:43.712Z,15.23
2019-05-01T07:00:15.627Z,10.83
2019-05-01T07:02:47.892Z,9.07
2019-05-01T07:05:18.674Z,8.61
2019-05-01T07:07:53.144Z,8.10
2019-05-01T07:10:30.559Z,7.92
2019-05-01T07:12:53.799Z,8.53
2019-05-01T07:15:26.793Z,7.70
2019-05-01T07:17:57.268Z,8.28
2019-05-01T07:20:35.503Z,8.39
2019-05-01T07:23:06.649Z,8.41
2019-05-01T07:25:39.399Z,8.87
2019-05-01T07:28:08.464Z,7.96
2019-05-01T07:30:41.566Z,8.89
2019-05-01T07:33:16.751Z,7.86
2019-05-01T07:35:47.605Z,7.26
2019-05-01T07:38:19.315Z,6.88
2019-05-01T07:40:48.773Z,7.48
2019-05-01T07:43:26.350Z,7.15
2019-05-01T07:46:04.164Z,6.44
2019-05-01T07:48:41.726Z,6.88
2019-05-01T07:51:11.658Z,6.40
2019-05-01T07:53:44.468Z,6.63
2019-05-01T07:56:16.980Z,7.17
2019-05-01T07:58:47.539Z,6.75
2019-05-01T08:01:37.307Z,6.39
2019-05-01T08:04:07.817Z,7.40
2019-05-01T08:06:38.231Z,7.99
2019-05-01T08:09:11.381Z,7.21
2019-05-01T08:11:44.016Z,6.66
2019-05-01T08:14:16.640Z,6.13
2019-05-01T08:16:44.647Z,6.92
2019-05-01T08:19:16.724Z,7.56
2019-05-01T08:22:07.710Z,7.55
2019-05-01T08:24:41.981Z,7.19
2019-05-01T08:27:15.675Z,6.82
2019-05-01T08:29:52.544Z,7.81
2019-05-01T08:32:33.884Z,8.36
2019-05-01T08:35:04.507Z,7.84
2019-05-01T08:37:33.903Z,8.17
2019-05-01T08:40:07.700Z,9.20
2019-05-01T08:42:42.675Z,8.47
2019-05-01T08:45:24.702Z,7.66
2019-05-01T08:48:02.734Z,7.70
2019-05-01T08:50:36.168Z,6.32
2019-05-01T08:53:06.574Z,6.28
2019-05-01T08:55:39.835Z,6.30
2019-05-01T08:58:13.949Z,6.41
2019-05-01T09:00:43.647Z,8.44
2019-05-01T09:03:18.719Z,10.17
2019-05-01T09:05:45.794Z,8.64
2019-05-01T09:08:15.280Z,9.96
2019-05-01T09:10:44.740Z,9.59
2019-05-01T09:13:18.876Z,8.75
2019-05-01T09:15:48.292Z,9.09
2019-05-01T09:18:21.492Z,9.61
2019-05-01T09:20:55.657Z,9.63
2019-05-01T09:23:29.302Z,11.86
2019-05-01T09:26:14.812Z,15.61
2019-05-01T09:28:48.018Z,17.95
2019-05-01T09:31:19.048Z,18.97
2019-05-01T09:33:49.624Z,20.17
2019-05-01T09:36:20.358Z,21.16
2019-05-01T09:38:50.805Z,20.82
2019-05-01T09:41:22.101Z,20.16
2019-05-01T09:43:51.811Z,21.36
2019-05-01T09:46:22.631Z,23.26
2019-05-01T09:48:52.168Z,23.60
2019-05-01T09:51:42.613Z,22.88
2019-05-01T09:54:17.315Z,21.85
2019-05-01T09:56:49.905Z,20.08
2019-05-01T09:59:20.425Z,20.19
2019-05-01T10:01:51.223Z,20.58
2019-05-01T10:04:20.646Z,20.20
2019-05-01T10:06:52.199Z,20.08
2019-05-01T10:09:21.219Z,20.45
2019-05-01T10:11:51.605Z,21.56
2019-05-01T10:14:22.010Z,20.41
2019-05-01T10:16:50.852Z,20.10
2019-05-01T10:19:20.255Z,20.36
2019-05-01T10:21:50.637Z,21.28
2019-05-01T10:24:22.400Z,21.54
2019-05-01T10:26:55.258Z,21.84
2019-05-01T10:29:44.708Z,21.82
2019-05-01T10:32:21.682Z,22.27
2019-05-01T10:34:52.211Z,23.53
2019-05-01T10:37:23.703Z,24.04
2019-05-01T10:39:54.011Z,25.20
2019-05-01T10:42:25.316Z,25.56
2019-05-01T10:44:55.923Z,24.69
2019-05-01T10:47:24.754Z,23.73
2019-05-01T10:49:54.128Z,23.91
2019-05-01T10:52:25.908Z,23.60
2019-05-01T10:54:55.345Z,24.80
2019-05-01T10:57:25.870Z,25.19
2019-05-01T10:59:56.259Z,25.60
2019-05-01T11:02:28.135Z,25.64
2019-05-01T11:04:58.481Z,25.35
2019-05-01T11:07:29.053Z,24.69
2019-05-01T11:10:01.336Z,25.45
2019-05-01T11:12:32.432Z,26.08
2019-05-01T11:15:02.871Z,26.72
2019-05-01T11:17:32.277Z,26.37
2019-05-01T11:20:02.845Z,26.67
2019-05-01T11:22:32.221Z,27.03
2019-05-01T11:25:01.629Z,28.06
2019-05-01T11:27:31.165Z,28.70
2019-05-01T11:30:03.110Z,29.31
2019-05-01T11:32:49.396Z,29.96
2019-05-01T11:35:33.482Z,29.65
2019-05-01T11:38:22.527Z,30.00
2019-05-01T11:40:52.745Z,30.75
2019-05-01T11:43:23.216Z,30.50
2019-05-01T11:45:52.707Z,30.18
2019-05-01T11:48:25.152Z,30.18
2019-05-01T11:50:53.511Z,29.85
2019-05-01T11:53:24.179Z,30.10
2019-05-01T11:55:58.139Z,29.99
2019-05-01T11:58:27.507Z,28.30
2019-05-01T12:00:59.581Z,28.73
2019-05-01T12:03:31.857Z,28.27
2019-05-01T12:06:01.221Z,28.61
2019-05-01T12:08:33.266Z,26.80
2019-05-01T12:11:03.747Z,26.80
2019-05-01T12:13:43.468Z,25.16
2019-05-01T12:16:07.128Z,25.16
2019-05-01T12:18:36.698Z,25.28
2019-05-01T12:21:06.164Z,25.38
2019-05-01T12:23:36.565Z,24.87
2019-05-01T12:26:07.551Z,24.33
2019-05-01T12:28:38.004Z,23.60
2019-05-01T12:31:10.580Z,23.54
2019-05-01T12:33:42.995Z,22.38
2019-05-01T12:36:13.611Z,21.94
2019-05-01T12:38:44.022Z,21.80
2019-05-01T12:41:21.139Z,21.98
2019-05-01T12:43:50.611Z,22.25
2019-05-01T12:46:27.251Z,21.89
2019-05-01T12:48:58.073Z,21.81
2019-05-01T12:51:29.723Z,22.43
2019-05-01T12:54:18.944Z,22.17
2019-05-01T12:57:04.076Z,21.60
2019-05-01T12:59:35.104Z,22.50
2019-05-01T13:02:05.618Z,23.06
2019-05-01T13:04:36.017Z,22.57
2019-05-01T13:07:07.995Z,23.65
2019-05-01T13:09:38.388Z,22.33
2019-05-01T13:12:07.547Z,22.26
2019-05-01T13:14:38.990Z,23.30
2019-05-01T13:17:08.350Z,22.54
2019-05-01T13:19:41.997Z,22.94
2019-05-01T13:22:12.508Z,22.10
2019-05-01T13:24:51.913Z,21.54
2019-05-01T13:27:23.115Z,22.01
2019-05-01T13:29:54.312Z,22.52
2019-05-01T13:32:35.330Z,22.39
2019-05-01T13:35:06.675Z,22.57
2019-05-01T13:37:36.036Z,22.12
2019-05-01T13:40:11.251Z,22.05
2019-05-01T13:42:43.752Z,21.93
2019-05-01T13:45:16.862Z,22.65
2019-05-01T13:47:47.267Z,21.75
2019-05-01T13:50:17.889Z,22.74
2019-05-01T13:52:48.288Z,23.43
2019-05-01T13:55:19.431Z,23.42
2019-05-01T13:57:49.831Z,23.69
2019-05-01T14:00:20.293Z,23.29
2019-05-01T14:02:52.626Z,24.10
2019-05-01T14:05:21.996Z,23.73
2019-05-01T14:07:52.120Z,24.06
2019-05-01T14:10:22.494Z,23.94
2019-05-01T14:12:52.892Z,24.33
2019-05-01T14:15:22.405Z,24.77
2019-05-01T14:17:54.958Z,24.14
2019-05-01T14:20:29.549Z,24.32
2019-05-01T14:23:00.920Z,23.56
2019-05-01T14:25:31.926Z,23.75
2019-05-01T14:28:03.783Z,23.20
2019-05-01T14:30:34.284Z,22.75
2019-05-01T14:33:04.698Z,22.73
2019-05-01T14:35:34.106Z,24.20
2019-05-01T14:38:03.576Z,23.96
2019-05-01T14:40:33.480Z,24.29
2019-05-01T14:43:03.024Z,23.33
2019-05-01T14:45:33.394Z,23.85
2019-05-01T14:48:02.859Z,23.47
2019-05-01T14:50:34.350Z,23.48
2019-05-01T14:53:05.347Z,23.88
2019-05-01T14:55:35.749Z,23.71
2019-05-01T14:58:05.464Z,23.82
2019-05-01T15:00:35.944Z,23.86
2019-05-01T15:03:07.162Z,24.13
2019-05-01T15:05:38.508Z,23.64
2019-05-01T15:08:10.585Z,23.58
2019-05-01T15:10:39.994Z,24.29
2019-05-01T15:13:12.129Z,24.10
2019-05-01T15:15:59.393Z,24.41
2019-05-01T15:18:46.535Z,24.84
2019-05-01T15:21:18.335Z,24.66
2019-05-01T15:23:53.606Z,24.96
2019-05-01T15:26:21.878Z,26.15
2019-05-01T15:28:51.484Z,25.33
2019-05-01T15:31:21.480Z,25.74
2019-05-01T15:33:51.357Z,26.53
2019-05-01T15:36:20.776Z,26.51
2019-05-01T15:38:51.397Z,26.31
2019-05-01T15:41:38.731Z,26.49
2019-05-01T15:44:22.589Z,28.04
2019-05-01T15:46:51.998Z,27.40
2019-05-01T15:49:21.351Z,28.10
2019-05-01T15:51:53.803Z,28.66
2019-05-01T15:54:25.289Z,29.17
2019-05-01T15:56:55.869Z,29.63
2019-05-01T15:59:26.278Z,28.61
2019-05-01T16:01:55.649Z,28.75
2019-05-01T16:04:25.045Z,28.50
2019-05-01T16:06:57.281Z,28.65
2019-05-01T16:09:28.001Z,28.40
2019-05-01T16:12:15.059Z,28.46
2019-05-01T16:14:47.585Z,28.55
2019-05-01T16:17:18.190Z,28.40
2019-05-01T16:19:47.696Z,28.44
2019-05-01T16:22:17.211Z,28.45
2019-05-01T16:24:46.634Z,29.14
2019-05-01T16:27:17.036Z,29.21
2019-05-01T16:29:47.659Z,28.99
2019-05-01T16:32:19.515Z,29.15
2019-05-01T16:34:50.006Z,29.56
2019-05-01T16:37:20.561Z,29.67
2019-05-01T16:39:55.533Z,30.00
2019-05-01T16:42:29.491Z,30.05
2019-05-01T16:45:01.147Z,30.10
2019-05-01T16:47:32.090Z,29.36
2019-05-01T16:50:01.556Z,30.06
2019-05-01T16:52:32.686Z,30.38
2019-05-01T16:55:02.194Z,30.22
2019-05-01T16:57:34.289Z,30.44
2019-05-01T17:00:05.790Z,30.05
2019-05-01T17:02:39.315Z,29.65
2019-05-01T17:05:25.221Z,30.37
2019-05-01T17:07:57.464Z,30.50
2019-05-01T17:10:29.744Z,30.67
2019-05-01T17:13:00.368Z,30.62
2019-05-01T17:15:32.464Z,30.79
2019-05-01T17:18:01.968Z,30.61
2019-05-01T17:20:31.428Z,30.71
2019-05-01T17:23:01.791Z,30.68
2019-05-01T17:25:32.287Z,31.50
2019-05-01T17:28:08.248Z,31.53
2019-05-01T17:30:44.592Z,31.67
2019-05-01T17:33:20.077Z,31.84
2019-05-01T17:35:45.255Z,32.55
2019-05-01T17:38:16.821Z,32.21
2019-05-01T17:40:47.455Z,32.83
2019-05-01T17:43:20.921Z,32.96
2019-05-01T17:45:51.515Z,33.12
2019-05-01T17:48:21.918Z,32.71
2019-05-01T17:50:55.053Z,33.06
2019-05-01T17:53:24.933Z,32.89
2019-05-01T17:55:54.622Z,33.35
2019-05-01T17:58:25.013Z,33.55
2019-05-01T18:01:13.169Z,33.71
2019-05-01T18:04:00.386Z,33.65
2019-05-01T18:06:30.532Z,33.81
2019-05-01T18:09:03.210Z,34.17
2019-05-01T18:11:33.168Z,35.11
2019-05-01T18:14:05.674Z,36.05
2019-05-01T18:16:35.794Z,36.96
2019-05-01T18:19:09.770Z,37.04
2019-05-01T18:21:39.502Z,36.47
2019-05-01T18:24:27.661Z,36.41
2019-05-01T18:26:58.731Z,37.10
2019-05-01T18:29:35.503Z,37.03
2019-05-01T18:32:08.164Z,37.29
2019-05-01T18:34:39.513Z,37.21
2019-05-01T18:37:25.002Z,37.58
2019-05-01T18:39:56.695Z,37.45
2019-05-01T18:42:26.144Z,37.42
2019-05-01T18:44:55.025Z,37.17
2019-05-01T18:47:25.712Z,37.22
2019-05-01T18:49:56.361Z,37.62
2019-05-01T18:52:25.867Z,37.96
2019-05-01T18:54:56.438Z,38.27
2019-05-01T18:57:25.848Z,39.18
2019-05-01T18:59:55.378Z,39.05
2019-05-01T19:02:25.075Z,40.43
2019-05-01T19:04:56.393Z,41.02
2019-05-01T19:07:26.901Z,41.73
2019-05-01T19:09:58.773Z,41.08
2019-05-01T19:12:31.477Z,39.87
2019-05-01T19:15:05.317Z,40.88
2019-05-01T19:17:33.940Z,41.71
2019-05-01T19:20:06.241Z,42.61
2019-05-01T19:22:35.526Z,41.80
2019-05-01T19:25:11.094Z,41.37
2019-05-01T19:27:37.722Z,41.48
2019-05-01T19:30:14.344Z,42.34
2019-05-01T19:32:41.100Z,42.45
2019-05-01T19:35:11.597Z,42.26
2019-05-01T19:37:42.008Z,41.75
2019-05-01T19:40:11.479Z,42.08
2019-05-01T19:42:42.084Z,42.07
2019-05-01T19:45:11.559Z,42.61
2019-05-01T19:47:40.803Z,42.21
2019-05-01T19:50:12.154Z,42.83
2019-05-01T19:52:42.571Z,43.29
2019-05-01T19:55:13.430Z,44.08
2019-05-01T19:57:42.747Z,44.12
2019-05-01T20:00:16.850Z,44.41
2019-05-01T20:02:47.417Z,44.44
2019-05-01T20:05:16.929Z,45.22
2019-05-01T20:07:51.198Z,45.97
2019-05-01T20:10:19.574Z,46.41
2019-05-01T20:12:51.185Z,46.37
2019-05-01T20:15:25.227Z,46.40
2019-05-01T20:17:52.668Z,46.79
2019-05-01T20:20:23.060Z,46.74
2019-05-01T20:22:53.084Z,47.20
2019-05-01T20:25:23.721Z,46.74
2019-05-01T20:27:54.089Z,47.34
2019-05-01T20:30:23.585Z,47.16
2019-05-01T20:32:53.163Z,46.70
2019-05-01T20:35:23.929Z,46.62
2019-05-01T20:37:55.631Z,47.00
2019-05-01T20:40:27.413Z,47.11
2019-05-01T20:43:01.116Z,46.92
2019-05-01T20:45:29.134Z,47.15
2019-05-01T20:48:01.394Z,47.12
2019-05-01T20:50:31.702Z,47.13
2019-05-01T20:53:02.212Z,46.95
2019-05-01T20:55:32.562Z,47.66
2019-05-01T20:58:19.698Z,48.07
2019-05-01T21:00:53.549Z,47.85
2019-05-01T21:03:23.166Z,48.07
2019-05-01T21:05:53.565Z,47.87
2019-05-01T21:08:39.213Z,48.02
2019-05-01T21:11:11.083Z,48.36
2019-05-01T21:13:38.497Z,48.70
2019-05-01T21:16:07.892Z,48.68
2019-05-01T21:18:37.518Z,48.81
2019-05-01T21:21:07.022Z,48.64
2019-05-01T21:23:36.441Z,48.38
2019-05-01T21:26:05.838Z,48.94
2019-05-01T21:28:35.369Z,49.18
2019-05-01T21:31:04.663Z,49.03
2019-05-01T21:33:40.758Z,49.00
2019-05-01T21:36:10.559Z,49.94
2019-05-01T21:38:40.057Z,49.58
2019-05-01T21:41:09.418Z,49.48
2019-05-01T21:43:38.905Z,49.34
2019-05-01T21:46:08.308Z,49.10
2019-05-01T21:48:38.812Z,49.20
2019-05-01T21:51:09.437Z,49.07
2019-05-01T21:53:42.799Z,49.29
2019-05-01T21:56:11.570Z,49.32
2019-05-01T21:58:41.003Z,49.23
2019-05-01T22:01:10.328Z,48.95
2019-05-01T22:03:41.048Z,49.07
2019-05-01T22:06:11.275Z,49.06
2019-05-01T22:08:41.692Z,49.04
2019-05-01T22:11:11.222Z,49.19
2019-05-01T22:13:40.619Z,49.37
2019-05-01T22:16:18.532Z,49.59
2019-05-01T22:18:59.869Z,49.65
2019-05-01T22:21:34.868Z,49.41
2019-05-01T22:24:23.779Z,49.63
2019-05-01T22:26:54.208Z,49.52
2019-05-01T22:29:27.190Z,49.82
2019-05-01T22:31:58.980Z,49.61
2019-05-01T22:34:39.799Z,49.67
2019-05-01T22:37:10.207Z,49.64
2019-05-01T22:39:41.360Z,50.12
2019-05-01T22:42:10.865Z,50.17
2019-05-01T22:44:40.377Z,50.40
2019-05-01T22:47:14.991Z,50.41
2019-05-01T22:49:44.399Z,50.52
2019-05-01T22:52:15.041Z,50.52
2019-05-01T22:54:44.882Z,50.75
2019-05-01T22:57:16.790Z,50.67
2019-05-01T22:59:48.202Z,50.69
2019-05-01T23:02:28.357Z,50.78
2019-05-01T23:04:57.947Z,50.98
2019-05-01T23:07:28.545Z,51.10
2019-05-01T23:09:59.441Z,51.46
2019-05-01T23:12:30.101Z,51.02
2019-05-01T23:15:00.504Z,50.94
2019-05-01T23:17:46.357Z,51.06
2019-05-01T23:20:17.135Z,50.77
2019-05-01T23:22:45.608Z,50.97
2019-05-01T23:25:16.529Z,50.90
2019-05-01T23:27:46.118Z,51.26
2019-05-01T23:30:17.481Z,51.44
2019-05-01T23:32:47.853Z,51.14
2019-05-01T23:35:19.507Z,51.12
2019-05-01T23:37:50.053Z,51.00
2019-05-01T23:40:21.895Z,51.14
2019-05-01T23:42:53.493Z,51.21
2019-05-01T23:45:23.533Z,51.25
2019-05-01T23:47:53.616Z,51.31
2019-05-01T23:50:24.041Z,51.40
2019-05-01T23:52:55.696Z,51.31
2019-05-01T23:55:26.095Z,51.21
2019-05-01T23:57:56.605Z,51.27
